Time;durP1;ratioP1;P1;durP2;ratioP2;P2;SDS_P1;SDS_P2;PMS_P1;PMS_P2;Temp;Humidity;BMP_temperature;BMP_pressure;BME280_temperature;BME280_humidity;BME280_pressure;Samples;Min_cycle;Max_cycle;Signal;HPM_P1;HPM_P2
2022/06/24 00:00:42;;;;;;;;;;;;;;;27.89;52.58;98070.16;5034314;28;20392;-57
2022/06/24 00:03:08;;;;;;;;;;;;;;;28.04;51.89;98059.56;5036012;28;20443;-57
2022/06/24 00:05:36;;;;;;;;;;;;;;;28.23;50.41;98050.22;5034151;28;19978;-57
2022/06/24 00:08:01;;;;;;;;;;;;;;;28.19;50.56;98045.50;5035550;28;19928;-57
2022/06/24 00:10:31;;;;;;;;;;;;;;;28.05;50.98;98044.50;5033237;28;19979;-57
2022/06/24 00:12:56;;;;;;;;;;;;;;;28.01;50.95;98041.44;5036006;28;19920;-57
2022/06/24 00:15:25;;;;;;;;;;;;;;;27.85;50.54;98029.22;5035251;28;19931;-57
2022/06/24 00:17:50;;;;;;;;;;;;;;;28.00;49.64;98028.38;5033557;28;19929;-57
2022/06/24 00:20:16;;;;;;;;;;;;;;;27.92;50.76;98024.81;5035056;28;19974;-57
2022/06/24 00:22:43;;;;;;;;;;;;;;;27.87;50.52;98024.56;5036283;28;19979;-57
2022/06/24 00:25:21;;;;;;;;;;;;;;;27.66;52.13;98025.25;5035752;28;19958;-57
2022/06/24 00:28:00;;;;;;;;;;;;;;;27.34;52.49;98026.41;5032796;28;19921;-57
2022/06/24 00:30:26;;;;;;;;;;;;;;;27.80;50.20;98026.25;5034225;28;20011;-57
2022/06/24 00:32:51;;;;;;;;;;;;;;;27.63;51.51;98024.78;5035503;28;19928;-58
2022/06/24 00:35:17;;;;;;;;;;;;;;;27.73;51.54;98020.88;5035797;28;19923;-57
2022/06/24 00:37:43;;;;;;;;;;;;;;;27.66;50.14;98021.78;5035013;28;19921;-57
2022/06/24 00:40:08;;;;;;;;;;;;;;;27.33;51.60;98019.47;5033471;28;20027;-57
2022/06/24 00:42:34;;;;;;;;;;;;;;;26.73;53.85;98029.03;5033652;28;20251;-58
2022/06/24 00:45:02;;;;;;;;;;;;;;;27.09;54.80;98015.19;5033951;28;19928;-58
2022/06/24 00:47:28;;;;;;;;;;;;;;;27.25;52.22;98006.31;5034786;28;19924;-58
2022/06/24 00:49:53;;;;;;;;;;;;;;;27.29;50.96;98007.63;5035335;28;19939;-57
2022/06/24 00:52:18;;;;;;;;;;;;;;;27.57;52.35;98009.66;5034909;28;19928;-57
2022/06/24 00:54:44;;;;;;;;;;;;;;;27.63;52.10;98004.44;5035028;28;19979;-57
2022/06/24 00:57:09;;;;;;;;;;;;;;;27.75;50.09;98008.25;5033273;28;19934;-57
2022/06/24 00:59:35;;;;;;;;;;;;;;;27.58;50.83;98006.81;5034243;28;20003;-57
2022/06/24 01:02:02;;;;;;;;;;;;;;;27.23;52.57;97997.75;5035057;28;20336;-57
2022/06/24 01:04:30;;;;;;;;;;;;;;;27.30;52.74;97993.38;5033342;28;19970;-57
2022/06/24 01:06:55;;;;;;;;;;;;;;;27.42;51.27;97985.84;5033367;28;19921;-57
2022/06/24 01:09:21;;;;;;;;;;;;;;;27.08;53.41;97985.31;5034835;28;19917;-57
2022/06/24 01:11:46;;;;;;;;;;;;;;;26.86;55.05;97997.53;5034133;28;19921;-57
2022/06/24 01:14:11;;;;;;;;;;;;;;;27.25;54.32;97987.81;5034450;28;20019;-57
2022/06/24 01:16:37;;;;;;;;;;;;;;;27.22;53.43;97990.84;5034239;28;20075;-57
2022/06/24 01:19:03;;;;;;;;;;;;;;;27.00;54.47;97990.66;5032158;28;20048;-57
2022/06/24 01:21:32;;;;;;;;;;;;;;;26.52;56.37;97992.66;5034449;28;19921;-57
2022/06/24 01:24:17;;;;;;;;;;;;;;;27.28;55.04;98011.28;5035065;28;19993;-57
2022/06/24 01:26:46;;;;;;;;;;;;;;;27.58;54.11;98030.63;5034871;28;20045;-57
2022/06/24 01:29:12;;;;;;;;;;;;;;;27.30;54.84;98031.25;5033561;28;19917;-57
2022/06/24 01:31:39;;;;;;;;;;;;;;;28.84;49.83;98039.31;5038153;28;19975;-56
2022/06/24 01:34:04;;;;;;;;;;;;;;;28.85;48.22;98034.81;5038358;28;19921;-57
2022/06/24 01:36:29;;;;;;;;;;;;;;;28.98;47.92;98042.91;5039029;28;19921;-57
2022/06/24 01:38:55;;;;;;;;;;;;;;;28.82;47.91;98056.41;5037583;28;19924;-57
2022/06/24 01:41:20;;;;;;;;;;;;;;;28.61;48.10;98076.59;5037841;28;19916;-57
2022/06/24 01:43:45;;;;;;;;;;;;;;;28.99;47.61;98071.06;5039162;28;20339;-57
2022/06/24 01:46:11;;;;;;;;;;;;;;;28.94;49.16;98073.44;5037887;28;20654;-57
2022/06/24 01:48:37;;;;;;;;;;;;;;;28.73;52.11;98067.13;5038400;28;19956;-57
2022/06/24 01:51:02;;;;;;;;;;;;;;;29.35;51.93;98062.19;5036252;28;20361;-57
2022/06/24 01:53:27;;;;;;;;;;;;;;;29.28;53.48;98062.16;5037832;28;19920;-57
2022/06/24 01:55:52;;;;;;;;;;;;;;;29.25;54.52;98059.06;5038170;28;19920;-57
2022/06/24 01:58:18;;;;;;;;;;;;;;;29.41;54.72;98058.78;5038294;28;19931;-57
2022/06/24 02:00:43;;;;;;;;;;;;;;;28.58;67.37;98050.47;5036994;28;19920;-57
2022/06/24 02:03:08;;;;;;;;;;;;;;;28.67;72.63;98051.16;5039919;28;19920;-57
2022/06/24 02:05:33;;;;;;;;;;;;;;;29.47;67.99;98049.22;5037068;28;19940;-57
2022/06/24 02:07:59;;;;;;;;;;;;;;;29.54;71.51;98050.94;5038066;28;19920;-57
2022/06/24 02:13:28;;;;;;;;;;;;;;;29.37;74.92;98038.97;5037270;28;19974;-57
2022/06/24 02:15:53;;;;;;;;;;;;;;;28.43;77.22;98039.88;5035847;28;19920;-57
2022/06/24 02:18:18;;;;;;;;;;;;;;;28.94;78.05;98042.47;5037343;28;19975;-58
2022/06/24 02:20:44;;;;;;;;;;;;;;;28.95;76.07;98032.69;5036431;28;19921;-59
2022/06/24 02:23:09;;;;;;;;;;;;;;;28.54;80.17;98033.31;5037855;28;19917;-58
2022/06/24 02:25:34;;;;;;;;;;;;;;;28.36;81.30;98026.56;5037191;28;19958;-58
2022/06/24 02:27:59;;;;;;;;;;;;;;;29.06;76.74;98018.94;5036378;28;19956;-56
2022/06/24 02:30:26;;;;;;;;;;;;;;;28.56;79.93;98026.00;5036496;28;19920;-59
2022/06/24 02:32:51;;;;;;;;;;;;;;;28.97;79.66;98020.06;5037286;28;20002;-59
2022/06/24 02:35:16;;;;;;;;;;;;;;;29.07;78.96;98012.59;5037024;28;20015;-58
2022/06/24 02:37:42;;;;;;;;;;;;;;;28.73;80.57;98011.47;5035705;28;19972;-59
2022/06/24 02:42:55;;;;;;;;;;;;;;;28.72;80.86;98025.75;5035813;28;19947;-58
2022/06/24 02:45:20;;;;;;;;;;;;;;;29.47;77.43;98034.16;5037488;28;19929;-57
2022/06/24 02:47:45;;;;;;;;;;;;;;;29.57;78.66;98034.63;5036325;28;20007;-58
2022/06/24 02:50:10;;;;;;;;;;;;;;;29.14;80.43;98042.66;5036177;28;20000;-58
2022/06/24 02:52:36;;;;;;;;;;;;;;;28.87;81.64;98040.75;5036665;28;19931;-58
2022/06/24 02:55:01;;;;;;;;;;;;;;;29.19;81.38;98034.97;5036749;28;19956;-59
2022/06/24 02:57:26;;;;;;;;;;;;;;;29.37;78.10;98044.28;5035391;28;19963;-59
2022/06/24 02:59:51;;;;;;;;;;;;;;;29.22;80.25;98044.38;5035603;28;19921;-56
2022/06/24 03:02:17;;;;;;;;;;;;;;;29.26;77.66;98048.25;5036477;28;19936;-59
2022/06/24 03:04:42;;;;;;;;;;;;;;;29.15;81.23;98062.88;5036671;28;20575;-59
2022/06/24 03:07:07;;;;;;;;;;;;;;;29.47;80.45;98068.63;5037159;28;19974;-58
2022/06/24 03:09:32;;;;;;;;;;;;;;;29.22;81.75;98057.63;5035324;28;19979;-57
2022/06/24 03:11:58;;;;;;;;;;;;;;;28.58;83.37;98050.47;5035842;28;19928;-59
2022/06/24 03:14:23;;;;;;;;;;;;;;;29.26;81.90;98044.78;5036090;28;19974;-58
2022/06/24 03:16:48;;;;;;;;;;;;;;;29.27;81.53;98038.50;5036322;28;20863;-59
2022/06/24 03:19:13;;;;;;;;;;;;;;;29.17;82.06;98039.66;5035460;28;20360;-58
2022/06/24 03:21:38;;;;;;;;;;;;;;;29.41;81.91;98034.91;5035654;28;19921;-58
2022/06/24 03:24:04;;;;;;;;;;;;;;;28.49;88.37;98036.53;5035301;28;19946;-59
2022/06/24 03:26:29;;;;;;;;;;;;;;;28.80;82.81;98038.03;5035548;28;20818;-59
2022/06/24 03:28:54;;;;;;;;;;;;;;;29.17;78.94;98037.00;5034661;28;19921;-59
2022/06/24 03:31:19;;;;;;;;;;;;;;;29.11;82.31;98034.28;5034994;28;20122;-59
2022/06/24 03:33:46;;;;;;;;;;;;;;;28.87;81.78;98035.47;5034918;28;19933;-58
2022/06/24 03:36:11;;;;;;;;;;;;;;;29.08;81.23;98038.16;5035185;28;19982;-59
2022/06/24 03:38:37;;;;;;;;;;;;;;;28.72;84.87;98031.06;5035191;28;19924;-58
2022/06/24 03:41:02;;;;;;;;;;;;;;;28.86;81.72;98023.22;5035357;28;19920;-59
2022/06/24 03:43:27;;;;;;;;;;;;;;;29.22;82.42;98027.63;5036268;28;20047;-58
2022/06/24 03:45:59;;;;;;;;;;;;;;;28.84;82.62;98012.00;5036223;28;19944;-59
2022/06/24 03:48:24;;;;;;;;;;;;;;;29.06;82.78;98012.78;5035328;28;19920;-59
2022/06/24 03:50:50;;;;;;;;;;;;;;;27.90;83.66;98026.00;5033630;28;19920;-59
2022/06/24 03:53:15;;;;;;;;;;;;;;;28.87;82.54;98015.06;5036129;28;19991;-59
2022/06/24 03:55:40;;;;;;;;;;;;;;;29.25;78.84;98003.38;5036724;28;20504;-58
2022/06/24 03:58:05;;;;;;;;;;;;;;;29.81;78.16;98003.38;5036301;28;19934;-58
2022/06/24 04:00:32;;;;;;;;;;;;;;;29.26;80.88;98005.81;5035810;28;19930;-59
2022/06/24 04:02:57;;;;;;;;;;;;;;;29.22;80.81;98019.66;5035654;28;19924;-59
2022/06/24 04:05:22;;;;;;;;;;;;;;;29.23;80.77;98029.28;5035607;28;19921;-59
2022/06/24 04:07:47;;;;;;;;;;;;;;;28.57;82.05;98027.63;5034053;28;19970;-58
2022/06/24 04:10:13;;;;;;;;;;;;;;;27.40;88.08;98030.97;5034761;28;19921;-58
2022/06/24 04:12:38;;;;;;;;;;;;;;;28.02;90.21;98039.59;5033941;28;19928;-58
2022/06/24 04:15:17;;;;;;;;;;;;;;;28.11;89.05;98049.88;5035338;28;20689;-58
2022/06/24 04:17:46;;;;;;;;;;;;;;;28.63;87.21;98053.38;5035532;28;20632;-58
2022/06/24 04:20:11;;;;;;;;;;;;;;;29.10;81.52;98037.94;5032879;28;19925;-58
2022/06/24 04:22:36;;;;;;;;;;;;;;;28.89;83.42;98042.22;5034690;28;20448;-58
2022/06/24 04:25:02;;;;;;;;;;;;;;;29.13;83.86;98048.19;5035224;28;20328;-58
2022/06/24 04:27:27;;;;;;;;;;;;;;;29.15;82.88;98041.66;5035278;28;19920;-58
2022/06/24 04:29:57;;;;;;;;;;;;;;;29.27;84.11;98046.44;5034306;28;19925;-58
2022/06/24 04:32:22;;;;;;;;;;;;;;;28.87;84.12;98044.22;5034576;28;19912;-59
2022/06/24 04:34:47;;;;;;;;;;;;;;;29.24;83.74;98046.81;5033992;28;19951;-58
2022/06/24 04:37:13;;;;;;;;;;;;;;;29.14;84.22;98034.72;5035244;28;19921;-58
2022/06/24 04:39:38;;;;;;;;;;;;;;;29.44;83.12;98029.22;5034832;28;19916;-58
2022/06/24 04:42:03;;;;;;;;;;;;;;;28.52;80.53;98030.03;5036028;28;20019;-58
2022/06/24 04:44:28;;;;;;;;;;;;;;;28.18;86.63;98047.31;5036044;28;20806;-58
2022/06/24 04:46:54;;;;;;;;;;;;;;;28.26;85.53;98041.94;5036563;28;20776;-58
2022/06/24 04:49:19;;;;;;;;;;;;;;;28.56;86.16;98041.91;5035786;28;20451;-58
2022/06/24 04:51:44;;;;;;;;;;;;;;;28.53;84.37;98035.16;5035523;28;19927;-58
2022/06/24 04:54:10;;;;;;;;;;;;;;;29.06;84.97;98032.19;5034950;28;19921;-58
2022/06/24 04:56:35;;;;;;;;;;;;;;;29.15;84.83;98035.56;5033524;28;20444;-58
2022/06/24 04:59:00;;;;;;;;;;;;;;;29.31;83.63;98050.34;5035280;28;19932;-58
2022/06/24 05:01:26;;;;;;;;;;;;;;;29.34;84.29;98047.31;5036430;28;21126;-58
2022/06/24 05:03:51;;;;;;;;;;;;;;;29.13;80.12;98059.59;5037396;28;19921;-58
2022/06/24 05:06:16;;;;;;;;;;;;;;;28.33;86.18;98094.97;5035928;28;19950;-56
2022/06/24 05:08:43;;;;;;;;;;;;;;;26.23;100.00;98139.31;5036768;28;19974;-55
2022/06/24 05:11:08;;;;;;;;;;;;;;;27.15;100.00;98136.06;5035521;28;19943;-51
2022/06/24 05:13:34;;;;;;;;;;;;;;;28.08;99.41;98120.94;5036339;28;19917;-53
2022/06/24 05:15:59;;;;;;;;;;;;;;;27.01;100.00;98079.53;5036852;28;19992;-54
2022/06/24 05:18:24;;;;;;;;;;;;;;;26.73;100.00;98065.16;5034760;28;19990;-58
2022/06/24 05:20:49;;;;;;;;;;;;;;;26.57;100.00;98066.94;5034513;28;19916;-56
2022/06/24 05:23:15;;;;;;;;;;;;;;;27.04;100.00;98081.78;5034678;28;20449;-54
2022/06/24 05:25:40;;;;;;;;;;;;;;;27.70;100.00;98097.94;5034895;28;20403;-55
2022/06/24 05:28:05;;;;;;;;;;;;;;;26.68;100.00;98119.34;5036202;28;20067;-55
2022/06/24 05:30:30;;;;;;;;;;;;;;;25.93;100.00;98121.59;5035110;28;19967;-53
2022/06/24 05:32:56;;;;;;;;;;;;;;;25.65;100.00;98103.47;5035500;28;20393;-55
2022/06/24 05:35:21;;;;;;;;;;;;;;;27.25;100.00;98081.16;5036008;28;19955;-55
2022/06/24 05:37:46;;;;;;;;;;;;;;;27.29;100.00;98063.13;5035743;28;20043;-54
2022/06/24 05:40:12;;;;;;;;;;;;;;;27.48;100.00;98064.44;5034684;28;19963;-54
2022/06/24 05:42:37;;;;;;;;;;;;;;;27.35;100.00;98059.78;5036144;28;19956;-54
2022/06/24 05:45:02;;;;;;;;;;;;;;;27.19;100.00;98059.91;5035479;28;19975;-54
2022/06/24 05:47:27;;;;;;;;;;;;;;;27.38;100.00;98050.66;5036312;28;19974;-54
2022/06/24 05:49:53;;;;;;;;;;;;;;;27.28;100.00;98058.84;5034752;28;20403;-53
2022/06/24 05:55:02;;;;;;;;;;;;;;;27.16;100.00;98068.16;5035026;28;19917;-54
2022/06/24 05:55:03;;;;;;;;;;;;;;;27.29;100.00;98071.88;5035001;28;19924;-54
2022/06/24 05:57:28;;;;;;;;;;;;;;;25.88;100.00;98083.34;5036685;28;19925;-52
2022/06/24 05:59:54;;;;;;;;;;;;;;;27.40;100.00;98078.56;5033570;28;20130;-51
2022/06/24 06:02:20;;;;;;;;;;;;;;;27.63;100.00;98053.91;5036439;28;19917;-51
2022/06/24 06:04:46;;;;;;;;;;;;;;;27.36;100.00;98064.06;5036951;28;20606;-53
2022/06/24 06:07:11;;;;;;;;;;;;;;;27.37;100.00;98068.34;5034507;28;19971;-53
2022/06/24 06:09:36;;;;;;;;;;;;;;;27.63;100.00;98061.81;5034238;28;19956;-53
2022/06/24 06:12:01;;;;;;;;;;;;;;;27.54;100.00;98059.25;5034283;28;20732;-53
2022/06/24 06:14:27;;;;;;;;;;;;;;;26.19;100.00;98079.94;5035140;28;20325;-54
2022/06/24 06:16:52;;;;;;;;;;;;;;;26.51;100.00;98075.50;5032556;28;19917;-54
2022/06/24 06:19:17;;;;;;;;;;;;;;;26.23;100.00;98077.81;5037586;28;19917;-54
2022/06/24 06:21:44;;;;;;;;;;;;;;;25.48;100.00;98067.56;5037790;28;19913;-57
2022/06/24 06:24:09;;;;;;;;;;;;;;;26.35;100.00;98059.75;5038174;28;19917;-52
2022/06/24 06:26:34;;;;;;;;;;;;;;;25.65;100.00;98061.28;5036163;28;19917;-51
2022/06/24 06:28:59;;;;;;;;;;;;;;;25.94;100.00;98065.22;5036311;28;19924;-51
2022/06/24 06:31:24;;;;;;;;;;;;;;;25.99;100.00;98057.59;5037370;28;19924;-54
2022/06/24 06:33:50;;;;;;;;;;;;;;;27.38;100.00;98069.19;5037844;28;19943;-53
2022/06/24 06:36:15;;;;;;;;;;;;;;;27.25;100.00;98064.47;5038007;28;19917;-54
2022/06/24 06:38:41;;;;;;;;;;;;;;;27.24;100.00;98071.59;5037242;28;19925;-52
2022/06/24 06:41:06;;;;;;;;;;;;;;;27.35;100.00;98059.78;5037233;28;19917;-53
2022/06/24 06:43:31;;;;;;;;;;;;;;;26.86;100.00;98062.78;5037963;28;19996;-53
2022/06/24 06:45:56;;;;;;;;;;;;;;;27.40;100.00;98054.78;5035760;28;19992;-54
2022/06/24 06:48:22;;;;;;;;;;;;;;;27.68;100.00;98054.16;5039118;28;19923;-54
2022/06/24 06:50:47;;;;;;;;;;;;;;;27.53;100.00;98051.53;5038004;28;19921;-51
2022/06/24 06:53:13;;;;;;;;;;;;;;;27.72;100.00;98060.75;5037192;28;19916;-54
2022/06/24 06:55:38;;;;;;;;;;;;;;;27.51;100.00;98059.63;5038669;28;19916;-51
2022/06/24 06:58:03;;;;;;;;;;;;;;;27.72;100.00;98063.38;5039615;28;20439;-55
2022/06/24 07:00:29;;;;;;;;;;;;;;;27.48;100.00;98053.84;5036859;28;20510;-54
2022/06/24 07:02:54;;;;;;;;;;;;;;;27.72;100.00;98053.63;5038673;28;19920;-51
2022/06/24 07:05:19;;;;;;;;;;;;;;;26.94;100.00;98044.22;5039109;28;19924;-54
2022/06/24 07:07:44;;;;;;;;;;;;;;;28.06;100.00;98035.59;5039258;28;20007;-52
2022/06/24 07:10:10;;;;;;;;;;;;;;;26.87;100.00;98032.72;5039611;28;19920;-50
2022/06/24 07:12:35;;;;;;;;;;;;;;;26.85;100.00;98032.91;5032585;28;20019;-54
2022/06/24 07:15:00;;;;;;;;;;;;;;;28.12;100.00;98034.81;5037456;28;20390;-53
2022/06/24 07:17:25;;;;;;;;;;;;;;;25.55;100.00;98031.66;5038792;28;20409;-54
2022/06/24 07:19:51;;;;;;;;;;;;;;;26.21;100.00;98025.19;5038139;28;20464;-55
2022/06/24 07:22:16;;;;;;;;;;;;;;;27.51;100.00;98019.97;5039263;28;19917;-56
2022/06/24 07:24:41;;;;;;;;;;;;;;;27.61;100.00;98018.88;5037780;28;19966;-53
2022/06/24 07:27:09;;;;;;;;;;;;;;;25.45;100.00;98030.03;5036644;28;19925;-54
2022/06/24 07:29:35;;;;;;;;;;;;;;;25.87;100.00;98028.13;5036461;28;19971;-55
2022/06/24 07:32:00;;;;;;;;;;;;;;;25.58;100.00;98026.03;5036594;28;19950;-54
2022/06/24 07:34:30;;;;;;;;;;;;;;;25.78;100.00;98019.38;5037541;28;20404;-57
2022/06/24 07:36:56;;;;;;;;;;;;;;;26.97;100.00;98014.81;5035362;28;19917;-57
2022/06/24 07:39:21;;;;;;;;;;;;;;;26.77;100.00;98013.63;5036490;28;19923;-56
2022/06/24 07:41:46;;;;;;;;;;;;;;;27.12;100.00;98007.75;5036505;28;20017;-54
2022/06/24 07:44:11;;;;;;;;;;;;;;;27.05;100.00;98017.38;5037638;28;19916;-55
2022/06/24 07:46:37;;;;;;;;;;;;;;;26.91;100.00;98015.50;5036911;28;20015;-57
2022/06/24 07:49:02;;;;;;;;;;;;;;;27.21;100.00;98015.59;5037246;28;19916;-58
2022/06/24 07:51:27;;;;;;;;;;;;;;;28.07;100.00;98006.25;5037539;28;20007;-58
2022/06/24 07:53:52;;;;;;;;;;;;;;;28.24;100.00;98001.59;5037320;28;20403;-57
2022/06/24 07:59:02;;;;;;;;;;;;;;;26.83;100.00;98015.59;5036130;28;20763;-58
2022/06/24 08:01:27;;;;;;;;;;;;;;;27.07;100.00;98011.91;5036524;28;19921;-58
2022/06/24 08:03:52;;;;;;;;;;;;;;;26.80;100.00;98013.28;5035955;28;20320;-58
2022/06/24 08:06:17;;;;;;;;;;;;;;;27.50;100.00;98015.66;5035237;28;20647;-59
2022/06/24 08:08:43;;;;;;;;;;;;;;;28.21;100.00;98015.19;5036498;28;20014;-58
2022/06/24 08:11:08;;;;;;;;;;;;;;;26.23;100.00;98017.91;5036226;28;19963;-58
2022/06/24 08:13:33;;;;;;;;;;;;;;;26.78;100.00;98015.31;5036177;28;19923;-57
2022/06/24 08:15:59;;;;;;;;;;;;;;;27.42;100.00;98014.94;5036840;28;19916;-59
2022/06/24 08:18:24;;;;;;;;;;;;;;;26.94;100.00;98014.31;5035925;28;19920;-60
2022/06/24 08:20:49;;;;;;;;;;;;;;;27.75;100.00;98010.91;5035617;28;19917;-59
2022/06/24 08:23:15;;;;;;;;;;;;;;;28.13;100.00;98010.00;5036508;28;19996;-58
2022/06/24 08:25:40;;;;;;;;;;;;;;;27.35;100.00;98006.91;5036206;28;20144;-59
2022/06/24 08:28:05;;;;;;;;;;;;;;;27.47;100.00;98010.72;5035775;28;19931;-58
2022/06/24 08:30:31;;;;;;;;;;;;;;;28.70;100.00;98005.75;5035878;28;19929;-59
2022/06/24 08:32:56;;;;;;;;;;;;;;;28.14;100.00;98006.34;5035725;28;20328;-59
2022/06/24 08:35:21;;;;;;;;;;;;;;;29.00;100.00;98006.44;5036068;28;19944;-59
2022/06/24 08:37:46;;;;;;;;;;;;;;;29.15;100.00;98007.19;5035818;28;19920;-58
2022/06/24 08:40:12;;;;;;;;;;;;;;;28.79;100.00;98007.28;5035208;28;20531;-59
2022/06/24 08:42:37;;;;;;;;;;;;;;;30.06;100.00;98005.50;5018307;28;20012;-59
2022/06/24 08:45:02;;;;;;;;;;;;;;;30.87;100.00;97999.41;5033708;28;20374;-59
2022/06/24 08:47:27;;;;;;;;;;;;;;;30.95;100.00;97993.88;5037430;28;19963;-58
2022/06/24 08:49:53;;;;;;;;;;;;;;;30.16;97.36;97995.34;5035307;28;20358;-58
2022/06/24 08:52:19;;;;;;;;;;;;;;;29.77;100.00;97996.81;5037100;28;19939;-58
2022/06/24 08:54:44;;;;;;;;;;;;;;;28.86;100.00;97996.72;5036316;28;20007;-59
2022/06/24 08:57:10;;;;;;;;;;;;;;;28.59;100.00;97993.81;5035651;28;19917;-59
2022/06/24 08:59:36;;;;;;;;;;;;;;;28.29;100.00;97995.72;5034419;28;19917;-59
2022/06/24 09:02:01;;;;;;;;;;;;;;;29.48;100.00;97988.03;5035804;28;19921;-58
2022/06/24 09:04:26;;;;;;;;;;;;;;;30.23;99.13;97985.53;5033540;28;20477;-59
2022/06/24 09:06:52;;;;;;;;;;;;;;;31.31;95.86;97982.00;5033950;28;20437;-59
2022/06/24 09:09:24;;;;;;;;;;;;;;;31.10;95.98;97989.19;5033154;28;19921;-58
2022/06/24 09:11:51;;;;;;;;;;;;;;;31.79;92.18;97984.34;5035228;28;19974;-59
2022/06/24 09:14:17;;;;;;;;;;;;;;;32.79;84.83;97984.69;5036773;28;19916;-58
2022/06/24 09:16:42;;;;;;;;;;;;;;;29.17;95.71;97986.63;5035307;28;19932;-59
2022/06/24 09:19:07;;;;;;;;;;;;;;;31.06;92.01;97982.63;5029891;28;19935;-58
2022/06/24 09:21:39;;;;;;;;;;;;;;;30.65;86.91;97988.91;5029279;28;19920;-59
2022/06/24 09:24:05;;;;;;;;;;;;;;;30.45;92.82;97991.56;5033335;28;19925;-58
2022/06/24 09:26:31;;;;;;;;;;;;;;;31.74;86.38;97981.50;5031937;28;19940;-58
2022/06/24 09:28:57;;;;;;;;;;;;;;;32.66;85.42;97976.78;5031941;28;20706;-58
2022/06/24 09:31:26;;;;;;;;;;;;;;;29.64;89.08;97980.78;5033907;28;19916;-59
2022/06/24 09:33:52;;;;;;;;;;;;;;;30.32;89.60;97978.25;5033469;28;19940;-59
2022/06/24 09:36:17;;;;;;;;;;;;;;;32.27;83.73;97965.31;5033686;28;19979;-59
2022/06/24 09:38:56;;;;;;;;;;;;;;;33.10;77.07;97975.84;5031732;28;19924;-58
2022/06/24 09:41:22;;;;;;;;;;;;;;;32.54;77.83;97967.84;5033619;28;19925;-59
2022/06/24 09:43:47;;;;;;;;;;;;;;;30.94;85.60;97977.09;5033313;28;19924;-59
2022/06/24 09:46:19;;;;;;;;;;;;;;;30.72;84.66;97973.78;5033858;28;19927;-60
2022/06/24 09:48:44;;;;;;;;;;;;;;;31.57;84.13;97971.34;5033482;28;19917;-59
2022/06/24 09:51:10;;;;;;;;;;;;;;;31.18;82.28;97974.84;5033095;28;19928;-59
2022/06/24 09:53:36;;;;;;;;;;;;;;;30.07;89.62;97985.91;5037449;28;19924;-60
2022/06/24 09:56:02;;;;;;;;;;;;;;;30.63;87.92;97977.66;5037639;28;20012;-60
2022/06/24 09:58:27;;;;;;;;;;;;;;;30.65;88.81;97978.28;5033088;28;20826;-59
2022/06/24 10:00:52;;;;;;;;;;;;;;;32.53;79.52;97969.72;5034630;28;19921;-60
2022/06/24 10:03:17;;;;;;;;;;;;;;;32.42;79.32;97967.69;5037210;28;20370;-60
2022/06/24 10:05:47;;;;;;;;;;;;;;;32.87;81.55;97960.41;5037131;28;19970;-59
2022/06/24 10:08:16;;;;;;;;;;;;;;;32.56;80.60;97963.13;5037741;28;19921;-59
2022/06/24 10:10:44;;;;;;;;;;;;;;;33.51;77.21;97970.94;5033724;28;19979;-59
2022/06/24 10:13:09;;;;;;;;;;;;;;;34.27;70.83;97974.97;5038220;28;19970;-59
2022/06/24 10:15:35;;;;;;;;;;;;;;;34.72;70.08;97968.38;5036909;28;20548;-59
2022/06/24 10:18:00;;;;;;;;;;;;;;;34.37;65.21;97977.09;5039168;28;20034;-58
2022/06/24 10:20:26;;;;;;;;;;;;;;;34.88;66.69;97969.56;5035986;28;20051;-59
2022/06/24 10:22:51;;;;;;;;;;;;;;;34.91;64.30;97969.91;5037111;28;19920;-59
2022/06/24 10:25:36;;;;;;;;;;;;;;;33.85;69.48;97971.38;5038217;28;19916;-59
2022/06/24 10:28:01;;;;;;;;;;;;;;;34.80;62.75;97962.69;5015054;28;20424;-59
2022/06/24 10:30:47;;;;;;;;;;;;;;;35.14;63.55;97965.66;5035216;28;20004;-59
2022/06/24 10:33:12;;;;;;;;;;;;;;;35.64;61.84;97962.47;5022764;28;19928;-57
2022/06/24 10:35:53;;;;;;;;;;;;;;;35.73;61.25;97966.41;5036008;28;20663;-57
2022/06/24 10:38:18;;;;;;;;;;;;;;;34.27;62.51;97960.81;5036421;28;20043;-57
2022/06/24 10:40:44;;;;;;;;;;;;;;;36.31;61.62;97958.41;5034277;28;19917;-57
2022/06/24 10:43:09;;;;;;;;;;;;;;;34.99;60.02;97958.88;5035861;28;20210;-58
2022/06/24 10:45:35;;;;;;;;;;;;;;;35.05;64.82;97958.97;5038267;28;20366;-57
2022/06/24 10:48:00;;;;;;;;;;;;;;;35.30;63.72;97972.97;5035923;28;20382;-57
2022/06/24 10:50:25;;;;;;;;;;;;;;;34.97;57.76;97966.31;5035391;28;20456;-58
2022/06/24 10:52:51;;;;;;;;;;;;;;;33.71;62.12;97976.91;5037664;28;20374;-57
2022/06/24 10:55:16;;;;;;;;;;;;;;;34.00;60.00;97974.47;5035625;28;19927;-57
2022/06/24 10:57:52;;;;;;;;;;;;;;;35.23;58.57;97971.47;5036420;28;20483;-60
2022/06/24 11:00:18;;;;;;;;;;;;;;;34.28;60.19;97975.78;5035876;28;19921;-57
2022/06/24 11:02:48;;;;;;;;;;;;;;;34.13;60.49;97977.00;5035449;28;20031;-61
2022/06/24 11:05:21;;;;;;;;;;;;;;;34.27;61.81;97976.84;5033977;28;19943;-60
2022/06/24 11:07:48;;;;;;;;;;;;;;;34.95;58.60;97975.63;5033442;28;19979;-60
2022/06/24 11:10:20;;;;;;;;;;;;;;;35.81;54.44;97974.09;5034506;28;19917;-59
2022/06/24 11:12:58;;;;;;;;;;;;;;;34.81;61.83;97988.41;5033743;28;19960;-59
2022/06/24 11:15:32;;;;;;;;;;;;;;;33.92;64.89;97991.63;5035444;28;19956;-59
2022/06/24 11:18:03;;;;;;;;;;;;;;;33.70;67.13;97985.94;5035342;28;19925;-59
2022/06/24 11:20:29;;;;;;;;;;;;;;;34.43;67.41;97981.53;5035326;28;19921;-59
2022/06/24 11:22:54;;;;;;;;;;;;;;;34.64;67.32;97985.56;5033385;28;19916;-59
2022/06/24 11:25:20;;;;;;;;;;;;;;;34.96;66.82;97982.59;5034157;28;19921;-59
2022/06/24 11:27:45;;;;;;;;;;;;;;;35.39;65.16;97986.81;5033907;28;20265;-60
2022/06/24 11:30:11;;;;;;;;;;;;;;;34.93;66.13;97989.22;5033629;28;19932;-60
2022/06/24 11:32:50;;;;;;;;;;;;;;;34.87;62.32;97990.13;5034856;28;19917;-60
2022/06/24 11:35:16;;;;;;;;;;;;;;;34.77;64.23;98003.28;5035154;28;19928;-59
2022/06/24 11:37:41;;;;;;;;;;;;;;;33.64;66.86;98010.88;5035376;28;20923;-59
2022/06/24 11:40:07;;;;;;;;;;;;;;;33.85;67.99;98008.75;5033419;28;19966;-59
2022/06/24 11:42:32;;;;;;;;;;;;;;;34.11;69.73;98013.81;5034963;28;19970;-59
2022/06/24 11:44:58;;;;;;;;;;;;;;;34.92;62.66;98009.00;5033387;28;20306;-58
2022/06/24 11:47:30;;;;;;;;;;;;;;;34.71;66.68;98020.22;5032966;28;19982;-59
2022/06/24 11:49:55;;;;;;;;;;;;;;;34.73;65.91;98018.16;5032375;28;19917;-60
2022/06/24 11:52:21;;;;;;;;;;;;;;;34.09;67.53;98013.19;5033495;28;20041;-60
2022/06/24 11:54:46;;;;;;;;;;;;;;;33.70;66.89;98023.31;5035830;28;19960;-58
2022/06/24 11:57:11;;;;;;;;;;;;;;;35.84;65.72;98007.63;5035574;28;19920;-59
2022/06/24 11:59:37;;;;;;;;;;;;;;;35.15;62.70;98018.16;5034547;28;19920;-60
2022/06/24 12:02:03;;;;;;;;;;;;;;;33.65;73.65;98031.19;5035320;28;19962;-59
2022/06/24 12:04:28;;;;;;;;;;;;;;;29.42;100.00;98046.34;5035187;28;21215;-59
2022/06/24 12:06:53;;;;;;;;;;;;;;;29.77;100.00;98041.91;5034822;28;19947;-59
2022/06/24 12:09:18;;;;;;;;;;;;;;;29.90;100.00;98043.81;5035046;28;19916;-58
2022/06/24 12:11:44;;;;;;;;;;;;;;;29.69;100.00;98044.72;5034944;28;19928;-59
2022/06/24 12:14:14;;;;;;;;;;;;;;;29.55;100.00;98051.75;5034950;28;19921;-59
2022/06/24 12:16:56;;;;;;;;;;;;;;;28.94;100.00;98041.63;5034630;28;19917;-59
2022/06/24 12:19:22;;;;;;;;;;;;;;;30.74;100.00;98043.53;5032540;28;20019;-59
2022/06/24 12:21:47;;;;;;;;;;;;;;;31.15;100.00;98039.09;5033740;28;20796;-59
2022/06/24 12:24:22;;;;;;;;;;;;;;;31.05;96.83;98042.16;5034724;28;19917;-59
2022/06/24 12:26:47;;;;;;;;;;;;;;;30.94;100.00;98034.78;5034957;28;19947;-59
2022/06/24 12:29:12;;;;;;;;;;;;;;;30.99;100.00;98029.69;5031136;28;19921;-60
2022/06/24 12:31:38;;;;;;;;;;;;;;;31.70;93.55;98023.69;5035224;28;20596;-59
2022/06/24 12:34:03;;;;;;;;;;;;;;;32.15;92.19;98025.63;5035117;28;19924;-58
2022/06/24 12:36:35;;;;;;;;;;;;;;;32.83;90.20;98017.06;5036174;28;19970;-59
2022/06/24 12:39:00;;;;;;;;;;;;;;;32.39;86.81;98016.06;5033862;28;19974;-59
2022/06/24 12:41:26;;;;;;;;;;;;;;;32.16;92.74;98017.44;5035065;28;20303;-59
2022/06/24 12:43:51;;;;;;;;;;;;;;;29.79;97.20;98027.44;5034330;28;20114;-59
2022/06/24 12:46:16;;;;;;;;;;;;;;;30.00;100.00;98026.50;5035291;28;19921;-59